createdAt,value
2018-05-17T00:00:23.038Z,101675.19
2018-05-17T00:01:27.215Z,101675.66
2018-05-17T00:02:31.385Z,101674.84
2018-05-17T00:03:35.557Z,101674.50
2018-05-17T00:04:40.493Z,101668.08
2018-05-17T00:05:44.693Z,101673.73
2018-05-17T00:06:49.642Z,101673.66
2018-05-17T00:07:53.837Z,101677.02
2018-05-17T00:08:58.795Z,101675.67
2018-05-17T00:10:02.971Z,101680.52
2018-05-17T00:11:07.158Z,101678.76
2018-05-17T00:12:11.410Z,101679.98
2018-05-17T00:13:15.580Z,101671.88
2018-05-17T00:14:19.763Z,101671.05
2018-05-17T00:15:23.932Z,101669.77
2018-05-17T00:16:28.109Z,101673.20
2018-05-17T00:17:32.305Z,101672.33
2018-05-17T00:18:36.482Z,101674.93
2018-05-17T00:19:40.644Z,101668.55
2018-05-17T00:20:44.949Z,101669.79
2018-05-17T00:21:49.135Z,101676.56
2018-05-17T00:22:53.302Z,101676.11
2018-05-17T00:23:58.304Z,101676.92
2018-05-17T00:25:02.480Z,101681.15
2018-05-17T00:26:06.686Z,101676.88
2018-05-17T00:27:10.896Z,101681.57
2018-05-17T00:28:15.074Z,101682.48
2018-05-17T00:29:19.250Z,101677.37
2018-05-17T00:30:23.447Z,101679.48
2018-05-17T00:31:27.641Z,101678.19
2018-05-17T00:32:31.919Z,101678.64
2018-05-17T00:33:36.127Z,101679.10
2018-05-17T00:34:40.309Z,101674.39
2018-05-17T00:35:44.495Z,101683.80
2018-05-17T00:36:48.693Z,101685.88
2018-05-17T00:37:52.893Z,101678.16
2018-05-17T00:38:57.060Z,101681.95
2018-05-17T00:40:01.997Z,101674.73
2018-05-17T00:41:06.954Z,101677.72
2018-05-17T00:42:11.180Z,101674.70
2018-05-17T00:43:15.363Z,101676.42
2018-05-17T00:44:19.532Z,101675.53
2018-05-17T00:45:23.696Z,101681.50
2018-05-17T00:46:27.870Z,101679.38
2018-05-17T00:47:33.013Z,101673.83
2018-05-17T00:48:37.199Z,101678.08
2018-05-17T00:49:41.383Z,101680.23
2018-05-17T00:50:45.557Z,101683.25
2018-05-17T00:51:49.741Z,101676.43
2018-05-17T00:53:12.472Z,101677.70
2018-05-17T00:54:16.649Z,101685.82
2018-05-17T00:55:20.850Z,101683.70
2018-05-17T00:56:25.025Z,101687.55
2018-05-17T00:57:29.647Z,101679.00
2018-05-17T00:58:34.607Z,101682.41
2018-05-17T00:59:38.818Z,101681.49
2018-05-17T01:00:43.002Z,101681.95
2018-05-17T01:01:47.187Z,101679.82
2018-05-17T01:02:51.377Z,101667.83
2018-05-17T01:03:55.581Z,101682.42
2018-05-17T01:04:59.749Z,101681.58
2018-05-17T01:06:03.931Z,101678.56
2018-05-17T01:07:08.096Z,101676.41
2018-05-17T01:08:12.470Z,101676.84
2018-05-17T01:09:16.662Z,101677.64
2018-05-17T01:10:21.621Z,101672.14
2018-05-17T01:11:25.789Z,101676.87
2018-05-17T01:12:29.975Z,101684.07
2018-05-17T01:13:34.582Z,101680.22
2018-05-17T01:14:38.752Z,101677.29
2018-05-17T01:15:43.694Z,101678.20
2018-05-17T01:16:47.867Z,101663.63
2018-05-17T01:17:52.830Z,101673.10
2018-05-17T01:18:57.104Z,101663.76
2018-05-17T01:20:01.282Z,101668.88
2018-05-17T01:21:05.457Z,101667.95
2018-05-17T01:22:09.705Z,101672.69
2018-05-17T01:23:13.875Z,101671.76
2018-05-17T01:24:18.041Z,101673.41
2018-05-17T01:25:22.212Z,101669.12
2018-05-17T01:26:26.378Z,101672.14
2018-05-17T01:27:30.585Z,101670.78
2018-05-17T01:28:34.836Z,101672.06
2018-05-17T01:29:39.033Z,101681.56
2018-05-17T01:30:43.982Z,101668.41
2018-05-17T01:31:48.165Z,101671.81
2018-05-17T01:32:53.187Z,101662.95
2018-05-17T01:33:57.396Z,101661.28
2018-05-17T01:35:01.611Z,101665.97
2018-05-17T01:36:05.774Z,101665.52
2018-05-17T01:37:27.734Z,101667.59
2018-05-17T01:38:32.676Z,101668.43
2018-05-17T01:39:36.868Z,101664.24
2018-05-17T01:40:41.036Z,101663.78
2018-05-17T01:41:45.225Z,101672.72
2018-05-17T01:42:50.182Z,101667.68
2018-05-17T01:43:54.357Z,101665.05
2018-05-17T01:44:59.293Z,101667.13
2018-05-17T01:46:04.586Z,101667.59
2018-05-17T01:47:08.764Z,101671.91
2018-05-17T01:48:12.937Z,101670.74
2018-05-17T01:49:17.873Z,101662.70
2018-05-17T01:50:22.811Z,101675.90
2018-05-17T01:51:27.005Z,101668.61
2018-05-17T01:52:31.941Z,101668.16
2018-05-17T01:53:36.882Z,101672.85
2018-05-17T01:54:41.048Z,101667.28
2018-05-17T01:55:45.225Z,101667.28
2018-05-17T01:56:49.445Z,101674.58
2018-05-17T01:57:53.621Z,101673.77
2018-05-17T01:58:57.803Z,101668.61
2018-05-17T02:00:02.014Z,101673.75
2018-05-17T02:01:06.180Z,101677.17
2018-05-17T02:02:10.368Z,101679.73
2018-05-17T02:03:14.542Z,101685.66
2018-05-17T02:04:19.484Z,101680.06
2018-05-17T02:05:24.451Z,101685.09
2018-05-17T02:06:28.821Z,101681.25
2018-05-17T02:07:33.757Z,101686.91
2018-05-17T02:08:38.694Z,101685.33
2018-05-17T02:09:42.885Z,101687.45
2018-05-17T02:10:47.833Z,101679.86
2018-05-17T02:11:52.029Z,101688.47
2018-05-17T02:12:57.007Z,101682.89
2018-05-17T02:14:01.169Z,101682.48
2018-05-17T02:15:06.106Z,101686.25
2018-05-17T02:16:10.296Z,101690.91
2018-05-17T02:17:15.228Z,101688.32
2018-05-17T02:18:20.164Z,101688.33
2018-05-17T02:19:25.111Z,101695.20
2018-05-17T02:20:29.278Z,101689.25
2018-05-17T02:21:33.608Z,101688.37
2018-05-17T02:22:38.558Z,101695.58
2018-05-17T02:23:42.737Z,101692.11
2018-05-17T02:24:47.680Z,101692.55
2018-05-17T02:25:52.622Z,101688.66
2018-05-17T02:26:56.836Z,101698.56
2018-05-17T02:28:01.004Z,101694.74
2018-05-17T02:29:06.682Z,101697.35
2018-05-17T02:30:10.869Z,101699.14
2018-05-17T02:31:16.108Z,101697.05
2018-05-17T02:32:21.056Z,101704.37
2018-05-17T02:33:25.257Z,101698.34
2018-05-17T02:34:30.201Z,101699.98
2018-05-17T02:35:34.379Z,101697.81
2018-05-17T02:36:39.369Z,101699.06
2018-05-17T02:37:43.533Z,101705.83
2018-05-17T02:38:48.484Z,101707.04
2018-05-17T02:39:52.687Z,101706.66
2018-05-17T02:40:56.913Z,101709.22
2018-05-17T02:42:01.119Z,101702.91
2018-05-17T02:43:05.295Z,101708.02
2018-05-17T02:44:10.238Z,101710.07
2018-05-17T02:45:14.414Z,101711.33
2018-05-17T02:46:18.616Z,101703.98
2018-05-17T02:47:22.790Z,101713.05
2018-05-17T02:48:26.957Z,101707.08
2018-05-17T02:49:31.904Z,101707.48
2018-05-17T02:50:36.879Z,101707.45
2018-05-17T02:51:41.093Z,101703.13
2018-05-17T02:52:45.276Z,101699.66
2018-05-17T02:53:49.452Z,101699.20
2018-05-17T02:54:54.384Z,101698.40
2018-05-17T02:55:59.334Z,101696.23
2018-05-17T02:57:03.721Z,101702.58
2018-05-17T02:58:08.673Z,101696.61
2018-05-17T02:59:12.837Z,101704.23
2018-05-17T03:00:17.016Z,101704.77
2018-05-17T03:01:21.190Z,101710.75
2018-05-17T03:02:26.194Z,101692.87
2018-05-17T03:03:30.373Z,101699.75
2018-05-17T03:04:34.555Z,101700.63
2018-05-17T03:05:38.729Z,101702.77
2018-05-17T03:06:43.679Z,101704.55
2018-05-17T03:07:47.882Z,101701.52
2018-05-17T03:08:52.825Z,101705.81
2018-05-17T03:09:57.022Z,101699.41
2018-05-17T03:11:01.961Z,101709.33
2018-05-17T03:12:06.169Z,101707.56
2018-05-17T03:13:10.365Z,101713.48
2018-05-17T03:14:15.334Z,101711.33
2018-05-17T03:15:19.501Z,101712.16
2018-05-17T03:16:24.449Z,101713.09
2018-05-17T03:17:28.673Z,101707.56
2018-05-17T03:18:32.847Z,101712.80
2018-05-17T03:19:37.042Z,101708.05
2018-05-17T03:20:41.209Z,101707.20
2018-05-17T03:21:45.385Z,101717.84
2018-05-17T03:22:50.386Z,101713.54
2018-05-17T03:23:54.605Z,101707.56
2018-05-17T03:24:58.796Z,101708.97
2018-05-17T03:26:02.981Z,101702.13
2018-05-17T03:27:07.148Z,101702.10
2018-05-17T03:28:12.124Z,101705.03
2018-05-17T03:29:16.357Z,101709.70
2018-05-17T03:30:20.541Z,101712.27
2018-05-17T03:31:24.829Z,101707.59
2018-05-17T03:32:28.997Z,101710.62
2018-05-17T03:33:34.677Z,101711.44
2018-05-17T03:34:39.093Z,101710.14
2018-05-17T03:35:44.042Z,101693.04
2018-05-17T03:36:48.220Z,101708.50
2018-05-17T03:37:53.169Z,101701.19
2018-05-17T03:38:57.356Z,101705.48
2018-05-17T03:40:02.346Z,101702.91
2018-05-17T03:41:06.546Z,101702.47
2018-05-17T03:42:10.712Z,101705.39
2018-05-17T03:43:15.652Z,101705.03
2018-05-17T03:44:19.837Z,101708.11
2018-05-17T03:45:25.202Z,101700.12
2018-05-17T03:46:29.381Z,101706.95
2018-05-17T03:47:34.320Z,101708.58
2018-05-17T03:48:39.265Z,101710.23
2018-05-17T03:49:43.441Z,101705.03
2018-05-17T03:50:47.786Z,101714.42
2018-05-17T03:51:51.997Z,101717.05
2018-05-17T03:52:56.169Z,101704.23
2018-05-17T03:54:00.341Z,101708.95
2018-05-17T03:55:04.541Z,101706.75
2018-05-17T03:56:08.769Z,101713.62
2018-05-17T03:57:12.961Z,101715.00
2018-05-17T03:58:17.128Z,101711.11
2018-05-17T03:59:21.305Z,101720.08
2018-05-17T04:00:25.507Z,101717.93
2018-05-17T04:01:47.472Z,101716.30
2018-05-17T04:03:09.342Z,101712.84
2018-05-17T04:04:31.435Z,101709.46
2018-05-17T04:05:54.140Z,101714.13
2018-05-17T04:06:58.524Z,101716.22
2018-05-17T04:08:02.693Z,101709.72
2018-05-17T04:09:06.878Z,101724.22
2018-05-17T04:10:11.066Z,101717.86
2018-05-17T04:11:15.237Z,101711.45
2018-05-17T04:12:20.202Z,101711.54
2018-05-17T04:13:24.382Z,101712.38
2018-05-17T04:14:28.564Z,101718.37
2018-05-17T04:15:32.744Z,101708.08
2018-05-17T04:16:36.932Z,101712.32
2018-05-17T04:17:41.342Z,101715.25
2018-05-17T04:18:45.535Z,101710.05
2018-05-17T04:19:50.482Z,101715.14
2018-05-17T04:20:55.431Z,101711.77
2018-05-17T04:21:59.607Z,101714.31
2018-05-17T04:23:04.584Z,101716.90
2018-05-17T04:24:08.790Z,101722.06
2018-05-17T04:25:12.968Z,101719.92
2018-05-17T04:26:17.909Z,101725.53
2018-05-17T04:27:22.072Z,101721.70
2018-05-17T04:28:26.245Z,101718.22
2018-05-17T04:29:30.866Z,101719.03
2018-05-17T04:30:35.033Z,101722.39
2018-05-17T04:31:40.017Z,101719.80
2018-05-17T04:32:44.185Z,101723.59
2018-05-17T04:33:48.362Z,101722.30
2018-05-17T04:34:52.561Z,101712.00
2018-05-17T04:35:56.735Z,101716.24
2018-05-17T04:37:00.914Z,101724.53
2018-05-17T04:38:05.860Z,101721.09
2018-05-17T04:39:10.100Z,101724.03
2018-05-17T04:40:14.267Z,101723.30
2018-05-17T04:41:19.210Z,101720.27
2018-05-17T04:42:23.704Z,101720.73
2018-05-17T04:43:28.646Z,101721.20
2018-05-17T04:44:32.832Z,101725.45
2018-05-17T04:45:37.006Z,101725.05
2018-05-17T04:46:41.181Z,101728.55
2018-05-17T04:47:45.373Z,101728.08
2018-05-17T04:48:50.322Z,101731.46
2018-05-17T04:49:54.584Z,101730.16
2018-05-17T04:50:58.752Z,101726.27
2018-05-17T04:52:02.932Z,101724.95
2018-05-17T04:53:07.125Z,101728.89
2018-05-17T04:54:11.666Z,101726.70
2018-05-17T04:55:16.605Z,101730.47
2018-05-17T04:56:20.772Z,101726.98
2018-05-17T04:57:24.949Z,101729.94
2018-05-17T04:58:29.147Z,101726.03
2018-05-17T04:59:33.430Z,101731.16
2018-05-17T05:00:38.368Z,101729.39
2018-05-17T05:01:43.345Z,101725.10
2018-05-17T05:02:47.532Z,101726.83
2018-05-17T05:03:51.922Z,101719.05
2018-05-17T05:04:56.856Z,101727.54
2018-05-17T05:06:01.029Z,101722.04
2018-05-17T05:07:05.204Z,101732.25
2018-05-17T05:08:09.433Z,101733.88
2018-05-17T05:09:13.676Z,101731.31
2018-05-17T05:10:18.625Z,101724.05
2018-05-17T05:11:22.798Z,101720.75
2018-05-17T05:12:27.752Z,101710.55
2018-05-17T05:13:32.693Z,101722.08
2018-05-17T05:14:37.403Z,101718.70
2018-05-17T05:15:42.365Z,101718.30
2018-05-17T05:16:46.536Z,101727.66
2018-05-17T05:17:51.472Z,101721.63
2018-05-17T05:18:56.414Z,101723.31
2018-05-17T05:20:01.118Z,101721.09
2018-05-17T05:21:06.130Z,101730.02
2018-05-17T05:22:10.292Z,101723.23
2018-05-17T05:23:14.480Z,101724.48
2018-05-17T05:24:18.664Z,101728.71
2018-05-17T05:25:22.937Z,101728.31
2018-05-17T05:26:27.085Z,101727.05
2018-05-17T05:27:32.042Z,101729.48
2018-05-17T05:28:36.225Z,101730.31
2018-05-17T05:29:41.161Z,101735.83
2018-05-17T05:30:46.601Z,101729.38
2018-05-17T05:31:51.542Z,101734.89
2018-05-17T05:32:55.717Z,101736.63
2018-05-17T05:33:59.894Z,101729.75
2018-05-17T05:35:04.075Z,101736.58
2018-05-17T05:36:08.695Z,101741.30
2018-05-17T05:37:12.865Z,101734.84
2018-05-17T05:38:17.045Z,101737.39
2018-05-17T05:39:21.225Z,101739.13
2018-05-17T05:40:25.398Z,101742.87
2018-05-17T05:41:29.588Z,101733.91
2018-05-17T05:42:33.764Z,101733.66
2018-05-17T05:43:38.553Z,101722.06
2018-05-17T05:44:42.720Z,101727.27
2018-05-17T05:45:46.893Z,101736.65
2018-05-17T05:46:51.070Z,101736.70
2018-05-17T05:47:55.259Z,101733.67
2018-05-17T05:48:59.470Z,101739.54
2018-05-17T05:50:03.641Z,101737.30
2018-05-17T05:51:07.838Z,101740.62
2018-05-17T05:52:12.773Z,101745.29
2018-05-17T05:53:16.946Z,101740.16
2018-05-17T05:54:21.126Z,101736.45
2018-05-17T05:55:25.301Z,101736.44
2018-05-17T05:56:29.500Z,101749.34
2018-05-17T05:57:34.437Z,101744.67
2018-05-17T05:58:38.655Z,101751.87
2018-05-17T05:59:42.830Z,101744.63
2018-05-17T06:00:47.076Z,101750.24
2018-05-17T06:01:51.253Z,101749.48
2018-05-17T06:02:55.496Z,101744.88
2018-05-17T06:03:59.682Z,101748.72
2018-05-17T06:05:04.626Z,101744.80
2018-05-17T06:06:08.963Z,101748.28
2018-05-17T06:07:13.137Z,101749.55
2018-05-17T06:08:18.086Z,101748.67
2018-05-17T06:09:22.295Z,101745.42
2018-05-17T06:10:26.476Z,101747.58
2018-05-17T06:11:31.464Z,101741.65
2018-05-17T06:12:35.631Z,101745.77
2018-05-17T06:13:40.565Z,101743.98
2018-05-17T06:14:45.518Z,101740.08
2018-05-17T06:15:50.112Z,101738.26
2018-05-17T06:16:54.296Z,101740.31
2018-05-17T06:17:59.229Z,101735.01
2018-05-17T06:19:03.396Z,101743.08
2018-05-17T06:20:07.584Z,101741.27
2018-05-17T06:21:12.185Z,101747.28
2018-05-17T06:22:17.121Z,101749.33
2018-05-17T06:23:21.303Z,101752.23
2018-05-17T06:24:25.480Z,101749.45
2018-05-17T06:25:29.681Z,101753.52
2018-05-17T06:26:33.968Z,101758.09
2018-05-17T06:27:38.161Z,101751.58
2018-05-17T06:28:43.106Z,101754.05
2018-05-17T06:29:47.293Z,101754.78
2018-05-17T06:30:51.530Z,101757.27
2018-05-17T06:31:55.721Z,101753.84
2018-05-17T06:33:00.679Z,101752.09
2018-05-17T06:34:04.849Z,101755.80
2018-05-17T06:35:09.022Z,101751.95
2018-05-17T06:36:13.198Z,101752.30
2018-05-17T06:37:17.432Z,101756.98
2018-05-17T06:38:21.608Z,101748.92
2018-05-17T06:39:26.563Z,101747.50
2018-05-17T06:40:30.753Z,101743.03
2018-05-17T06:41:34.924Z,101744.20
2018-05-17T06:42:39.472Z,101743.84
2018-05-17T06:43:44.413Z,101745.55
2018-05-17T06:44:48.580Z,101745.93
2018-05-17T06:45:52.755Z,101747.58
2018-05-17T06:46:56.934Z,101749.38
2018-05-17T06:48:01.902Z,101745.50
2018-05-17T06:49:06.074Z,101746.80
2018-05-17T06:50:10.256Z,101741.19
2018-05-17T06:51:15.201Z,101745.45
2018-05-17T06:52:19.379Z,101748.81
2018-05-17T06:53:23.550Z,101739.66
2018-05-17T06:54:28.139Z,101750.26
2018-05-17T06:55:33.091Z,101750.05
2018-05-17T06:56:37.287Z,101756.45
2018-05-17T06:57:42.225Z,101752.47
2018-05-17T06:58:46.403Z,101751.52
2018-05-17T06:59:50.737Z,101749.22
2018-05-17T07:00:55.767Z,101751.28
2018-05-17T07:01:59.889Z,101754.78
2018-05-17T07:03:04.064Z,101755.55
2018-05-17T07:04:08.250Z,101753.03
2018-05-17T07:05:12.450Z,101745.84
2018-05-17T07:06:16.658Z,101751.05
2018-05-17T07:07:20.885Z,101755.30
2018-05-17T07:08:25.066Z,101753.23
2018-05-17T07:09:29.239Z,101750.16
2018-05-17T07:10:34.249Z,101752.95
2018-05-17T07:11:38.381Z,101753.95
2018-05-17T07:12:43.523Z,101760.55
2018-05-17T07:13:48.466Z,101758.97
2018-05-17T07:14:52.636Z,101757.20
2018-05-17T07:15:57.573Z,101758.83
2018-05-17T07:17:02.523Z,101761.64
2018-05-17T07:18:06.889Z,101759.55
2018-05-17T07:19:10.941Z,101768.42
2018-05-17T07:20:15.140Z,101765.94
2018-05-17T07:21:23.313Z,101770.44
2018-05-17T07:22:28.157Z,101763.44
2018-05-17T07:23:32.713Z,101772.43
2018-05-17T07:24:36.881Z,101764.34
2018-05-17T07:25:41.088Z,101763.95
2018-05-17T07:26:45.262Z,101763.05
2018-05-17T07:27:49.445Z,101765.60
2018-05-17T07:28:53.850Z,101763.63
2018-05-17T07:29:58.132Z,101765.81
2018-05-17T07:31:02.985Z,101759.52
2018-05-17T07:32:07.924Z,101758.09
2018-05-17T07:33:12.109Z,101763.89
2018-05-17T07:34:17.076Z,101756.33
2018-05-17T07:35:21.254Z,101767.91
2018-05-17T07:36:26.193Z,101762.89
2018-05-17T07:37:30.379Z,101774.30
2018-05-17T07:38:34.619Z,101773.79
2018-05-17T07:39:38.815Z,101771.99
2018-05-17T07:40:43.760Z,101772.31
2018-05-17T07:41:47.935Z,101762.32
2018-05-17T07:42:52.109Z,101774.20
2018-05-17T07:43:56.624Z,101767.12
2018-05-17T07:45:00.818Z,101769.82
2018-05-17T07:46:04.997Z,101770.97
2018-05-17T07:47:10.026Z,101778.46
2018-05-17T07:48:14.150Z,101774.09
2018-05-17T07:49:18.353Z,101773.31
2018-05-17T07:50:23.297Z,101765.93
2018-05-17T07:51:27.485Z,101767.06
2018-05-17T07:52:32.738Z,101771.12
2018-05-17T07:53:36.918Z,101773.04
2018-05-17T07:54:41.089Z,101770.60
2018-05-17T07:55:45.274Z,101775.23
2018-05-17T07:56:49.457Z,101772.97
2018-05-17T07:57:54.425Z,101773.22
2018-05-17T07:58:58.605Z,101772.09
2018-05-17T08:00:03.592Z,101777.66
2018-05-17T08:01:07.800Z,101767.94
2018-05-17T08:02:11.976Z,101773.41
2018-05-17T08:03:16.377Z,101774.30
2018-05-17T08:04:20.552Z,101774.70
2018-05-17T08:05:24.735Z,101777.75
2018-05-17T08:06:28.918Z,101775.38
2018-05-17T08:07:33.097Z,101774.79
2018-05-17T08:08:38.082Z,101775.91
2018-05-17T08:09:42.316Z,101782.92
2018-05-17T08:10:46.502Z,101772.80
2018-05-17T08:11:50.687Z,101778.14
2018-05-17T08:12:54.874Z,101778.70
2018-05-17T08:13:59.808Z,101776.67
2018-05-17T08:15:04.778Z,101778.77
2018-05-17T08:16:08.960Z,101776.92
2018-05-17T08:17:13.362Z,101775.34
2018-05-17T08:18:18.293Z,101769.92
2018-05-17T08:19:23.236Z,101775.35
2018-05-17T08:20:27.426Z,101767.19
2018-05-17T08:21:32.361Z,101771.83
2018-05-17T08:22:36.602Z,101776.37
2018-05-17T08:23:40.897Z,101772.75
2018-05-17T08:24:45.074Z,101767.83
2018-05-17T08:25:49.253Z,101775.20
2018-05-17T08:26:53.445Z,101779.88
2018-05-17T08:27:58.045Z,101773.06
2018-05-17T08:29:02.310Z,101777.05
2018-05-17T08:30:07.174Z,101778.40
2018-05-17T08:31:12.119Z,101779.67
2018-05-17T08:32:16.316Z,101781.25
2018-05-17T08:33:20.585Z,101788.88
2018-05-17T08:34:24.761Z,101781.25
2018-05-17T08:35:28.933Z,101774.98
2018-05-17T08:36:33.972Z,101776.41
2018-05-17T08:37:38.078Z,101776.07
2018-05-17T08:38:43.208Z,101779.77
2018-05-17T08:39:48.141Z,101778.41
2018-05-17T08:40:52.312Z,101776.84
2018-05-17T08:41:58.053Z,101780.30
2018-05-17T08:43:02.237Z,101775.15
2018-05-17T08:44:07.131Z,101772.17
2018-05-17T08:45:12.127Z,101777.52
2018-05-17T08:46:16.316Z,101776.20
2018-05-17T08:47:20.493Z,101781.99
2018-05-17T08:48:24.669Z,101784.09
2018-05-17T08:49:29.253Z,101780.19
2018-05-17T08:50:33.381Z,101779.31
2018-05-17T08:51:37.560Z,101789.80
2018-05-17T08:52:41.725Z,101787.75
2018-05-17T08:53:46.672Z,101791.45
2018-05-17T08:54:50.892Z,101780.14
2018-05-17T08:55:55.065Z,101788.88
2018-05-17T08:57:00.022Z,101787.94
2018-05-17T08:58:04.205Z,101791.59
2018-05-17T08:59:08.444Z,101794.06
2018-05-17T09:00:12.845Z,101790.06
2018-05-17T09:01:17.790Z,101792.01
2018-05-17T09:02:21.965Z,101795.81
2018-05-17T09:03:27.637Z,101788.55
2018-05-17T09:04:31.850Z,101800.88
2018-05-17T09:05:36.541Z,101796.77
2018-05-17T09:06:41.494Z,101792.45
2018-05-17T09:07:46.433Z,101793.27
2018-05-17T09:08:50.601Z,101797.58
2018-05-17T09:09:54.787Z,101800.20
2018-05-17T09:10:58.985Z,101797.61
2018-05-17T09:12:03.191Z,101791.48
2018-05-17T09:13:07.384Z,101796.47
2018-05-17T09:14:11.560Z,101788.88
2018-05-17T09:15:16.494Z,101795.60
2018-05-17T09:16:21.420Z,101786.22
2018-05-17T09:17:26.420Z,101791.31
2018-05-17T09:18:30.601Z,101792.42
2018-05-17T09:19:34.773Z,101789.64
2018-05-17T09:20:39.703Z,101792.44
2018-05-17T09:21:44.647Z,101795.02
2018-05-17T09:22:48.867Z,101791.38
2018-05-17T09:23:53.252Z,101785.09
2018-05-17T09:24:58.184Z,101790.66
2018-05-17T09:26:03.127Z,101789.59
2018-05-17T09:27:07.296Z,101792.38
2018-05-17T09:28:13.872Z,101784.23
2018-05-17T09:29:20.726Z,101785.84
2018-05-17T09:30:24.897Z,101781.85
2018-05-17T09:31:29.094Z,101787.97
2018-05-17T09:32:33.260Z,101787.55
2018-05-17T09:33:37.514Z,101790.39
2018-05-17T09:34:42.466Z,101785.48
2018-05-17T09:35:46.737Z,101783.19
2018-05-17T09:36:50.852Z,101788.06
2018-05-17T09:37:55.795Z,101786.92
2018-05-17T09:39:00.002Z,101781.73
2018-05-17T09:40:04.225Z,101789.91
2018-05-17T09:41:08.397Z,101783.93
2018-05-17T09:42:12.578Z,101779.48
2018-05-17T09:43:16.758Z,101784.56
2018-05-17T09:44:20.933Z,101792.23
2018-05-17T09:45:25.146Z,101779.92
2018-05-17T09:46:30.090Z,101776.50
2018-05-17T09:47:35.127Z,101779.97
2018-05-17T09:48:39.259Z,101781.30
2018-05-17T09:49:43.433Z,101783.64
2018-05-17T09:50:49.385Z,101788.13
2018-05-17T09:51:54.325Z,101792.44
2018-05-17T09:52:58.500Z,101792.60
2018-05-17T09:54:02.674Z,101793.73
2018-05-17T09:55:06.925Z,101788.36
2018-05-17T09:56:11.093Z,101783.59
2018-05-17T09:57:15.267Z,101788.53
2018-05-17T09:58:20.264Z,101788.73
2018-05-17T09:59:24.441Z,101785.73
2018-05-17T10:00:31.148Z,101775.73
2018-05-17T10:01:35.357Z,101777.08
2018-05-17T10:02:40.000Z,101778.09
2018-05-17T10:03:44.932Z,101780.06
2018-05-17T10:04:49.877Z,101770.30
2018-05-17T10:05:54.050Z,101779.92
2018-05-17T10:06:58.233Z,101780.19
2018-05-17T10:08:02.501Z,101772.27
2018-05-17T10:09:06.677Z,101772.00
2018-05-17T10:10:10.858Z,101772.69
2018-05-17T10:11:15.026Z,101773.10
2018-05-17T10:12:19.978Z,101775.38
2018-05-17T10:13:24.292Z,101773.54
2018-05-17T10:14:28.471Z,101771.30
2018-05-17T10:15:33.527Z,101770.97
2018-05-17T10:16:37.713Z,101762.03
2018-05-17T10:17:42.682Z,101764.85
2018-05-17T10:18:47.774Z,101765.11
2018-05-17T10:19:52.716Z,101770.41
2018-05-17T10:20:56.898Z,101770.60
2018-05-17T10:22:01.087Z,101767.31
2018-05-17T10:23:05.277Z,101769.55
2018-05-17T10:24:09.490Z,101773.95
2018-05-17T10:25:13.669Z,101773.61
2018-05-17T10:26:17.917Z,101762.46
2018-05-17T10:27:22.095Z,101762.72
2018-05-17T10:28:26.300Z,101768.08
2018-05-17T10:29:30.515Z,101769.72
2018-05-17T10:30:35.452Z,101767.33
2018-05-17T10:31:39.847Z,101768.52
2018-05-17T10:32:44.020Z,101761.77
2018-05-17T10:33:48.193Z,101761.48
2018-05-17T10:34:52.369Z,101769.73
2018-05-17T10:35:57.304Z,101763.69
2018-05-17T10:37:01.712Z,101758.95
2018-05-17T10:38:06.654Z,101762.99
2018-05-17T10:39:10.821Z,101761.53
2018-05-17T10:40:15.834Z,101762.63
2018-05-17T10:41:20.006Z,101761.34
2018-05-17T10:42:24.309Z,101758.58
2018-05-17T10:43:28.510Z,101757.50
2018-05-17T10:44:33.835Z,101758.52
2018-05-17T10:45:38.314Z,101757.62
2018-05-17T10:46:42.498Z,101764.70
2018-05-17T10:47:46.660Z,101759.77
2018-05-17T10:48:51.128Z,101751.50
2018-05-17T10:49:55.515Z,101755.55
2018-05-17T10:51:00.459Z,101750.70
2018-05-17T10:52:04.620Z,101753.08
2018-05-17T10:53:09.074Z,101758.71
2018-05-17T10:54:14.007Z,101756.33
2018-05-17T10:55:18.194Z,101759.20
2018-05-17T10:56:22.361Z,101757.19
2018-05-17T10:57:26.587Z,101760.27
2018-05-17T10:58:30.760Z,101761.61
2018-05-17T10:59:34.939Z,101761.05
2018-05-17T11:00:39.888Z,101756.13
2018-05-17T11:01:44.090Z,101763.52
2018-05-17T11:02:49.151Z,101763.45
2018-05-17T11:03:53.331Z,101764.23
2018-05-17T11:04:58.268Z,101759.48
2018-05-17T11:06:02.447Z,101754.95
2018-05-17T11:07:06.620Z,101759.30
2018-05-17T11:08:10.898Z,101763.92
2018-05-17T11:09:15.869Z,101762.81
2018-05-17T11:10:20.057Z,101765.48
2018-05-17T11:11:24.225Z,101759.53
2018-05-17T11:12:29.162Z,101762.92
2018-05-17T11:13:34.114Z,101761.56
2018-05-17T11:14:38.502Z,101762.34
2018-05-17T11:15:43.442Z,101775.28
2018-05-17T11:16:48.401Z,101766.67
2018-05-17T11:17:52.569Z,101768.67
2018-05-17T11:18:57.510Z,101771.73
2018-05-17T11:20:01.709Z,101765.86
2018-05-17T11:21:06.650Z,101758.98
2018-05-17T11:22:11.464Z,101761.00
2018-05-17T11:23:16.409Z,101765.26
2018-05-17T11:24:21.104Z,101758.08
2018-05-17T11:25:26.037Z,101761.19
2018-05-17T11:26:30.973Z,101770.09
2018-05-17T11:27:35.909Z,101761.74
2018-05-17T11:28:40.087Z,101762.27
2018-05-17T11:29:44.282Z,101764.86
2018-05-17T11:30:49.773Z,101764.43
2018-05-17T11:31:54.642Z,101759.17
2018-05-17T11:32:58.885Z,101755.70
2018-05-17T11:34:03.838Z,101755.25
2018-05-17T11:35:08.010Z,101755.59
2018-05-17T11:36:12.345Z,101760.03
2018-05-17T11:37:17.276Z,101762.05
2018-05-17T11:38:22.215Z,101745.70
2018-05-17T11:39:26.423Z,101753.55
2018-05-17T11:40:30.600Z,101753.39
2018-05-17T11:41:35.593Z,101755.88
2018-05-17T11:42:39.776Z,101760.59
2018-05-17T11:43:43.944Z,101751.25
2018-05-17T11:44:48.126Z,101761.19
2018-05-17T11:45:52.329Z,101763.16
2018-05-17T11:46:56.524Z,101753.73
2018-05-17T11:48:00.694Z,101755.30
2018-05-17T11:49:04.870Z,101760.41
2018-05-17T11:50:09.042Z,101761.03
2018-05-17T11:51:13.221Z,101758.08
2018-05-17T11:52:17.456Z,101763.65
2018-05-17T11:53:22.392Z,101755.68
2018-05-17T11:54:26.557Z,101760.00
2018-05-17T11:55:30.733Z,101751.52
2018-05-17T11:56:34.903Z,101758.78
2018-05-17T11:57:39.896Z,101761.57
2018-05-17T11:58:44.058Z,101759.24
2018-05-17T11:59:48.276Z,101767.13
2018-05-17T12:00:52.460Z,101763.81
2018-05-17T12:01:57.397Z,101764.22
2018-05-17T12:03:02.329Z,101761.10
2018-05-17T12:04:07.260Z,101767.64
2018-05-17T12:05:12.216Z,101765.20
2018-05-17T12:06:16.401Z,101769.98
2018-05-17T12:07:20.640Z,101756.55
2018-05-17T12:08:24.785Z,101757.80
2018-05-17T12:09:28.962Z,101753.33
2018-05-17T12:10:33.242Z,101764.40
2018-05-17T12:11:37.405Z,101764.23
2018-05-17T12:12:41.578Z,101755.56
2018-05-17T12:13:46.125Z,101761.06
2018-05-17T12:14:50.436Z,101763.87
2018-05-17T12:15:54.601Z,101756.27
2018-05-17T12:16:58.778Z,101757.64